createdAt,value
2022-11-23T00:00:38.015Z,11.05
2022-11-23T00:03:05.563Z,11.23
2022-11-23T00:05:34.260Z,11.02
2022-11-23T00:08:01.395Z,13.23
2022-11-23T00:10:28.419Z,12.48
2022-11-23T00:12:55.395Z,13.32
2022-11-23T00:15:22.427Z,13.68
2022-11-23T00:17:49.693Z,14.20
2022-11-23T00:20:17.031Z,15.38
2022-11-23T00:22:44.075Z,15.02
2022-11-23T00:25:11.184Z,14.95
2022-11-23T00:27:38.282Z,15.80
2022-11-23T00:30:06.060Z,15.60
2022-11-23T00:32:33.138Z,16.40
2022-11-23T00:35:00.254Z,15.40
2022-11-23T00:37:27.816Z,15.45
2022-11-23T00:39:54.864Z,15.07
2022-11-23T00:42:21.859Z,16.27
2022-11-23T00:44:48.908Z,17.98
2022-11-23T00:47:15.904Z,17.30
2022-11-23T00:49:42.943Z,16.23
2022-11-23T00:52:10.034Z,17.75
2022-11-23T00:54:37.128Z,17.77
2022-11-23T00:57:04.534Z,19.25
2022-11-23T00:59:31.855Z,20.27
2022-11-23T01:01:59.183Z,18.27
2022-11-23T01:04:27.277Z,18.42
2022-11-23T01:06:57.451Z,18.65
2022-11-23T01:09:26.653Z,18.95
2022-11-23T01:11:54.697Z,18.70
2022-11-23T01:14:22.649Z,19.67
2022-11-23T01:16:49.731Z,18.55
2022-11-23T01:19:19.868Z,18.80
2022-11-23T01:21:47.219Z,18.85
2022-11-23T01:24:17.864Z,19.27
2022-11-23T01:26:45.325Z,18.25
2022-11-23T01:29:12.787Z,17.80
2022-11-23T01:31:46.164Z,17.90
2022-11-23T01:34:14.762Z,16.75
2022-11-23T01:36:42.726Z,17.00
2022-11-23T01:39:10.911Z,18.13
2022-11-23T01:41:41.507Z,18.85
2022-11-23T01:44:32.115Z,19.35
2022-11-23T01:47:01.829Z,18.88
2022-11-23T01:49:35.584Z,18.35
2022-11-23T01:52:11.948Z,20.13
2022-11-23T01:54:45.536Z,18.33
2022-11-23T01:57:19.842Z,17.00
2022-11-23T01:59:47.844Z,17.83
2022-11-23T02:02:15.936Z,16.98
2022-11-23T02:04:46.251Z,17.08
2022-11-23T02:07:14.800Z,17.52
2022-11-23T02:09:42.633Z,16.40
2022-11-23T02:12:13.367Z,15.25
2022-11-23T02:14:42.381Z,14.60
2022-11-23T02:17:09.648Z,15.38
2022-11-23T02:19:48.534Z,14.32
2022-11-23T02:22:26.735Z,13.68
2022-11-23T02:24:55.161Z,13.82
2022-11-23T02:27:23.517Z,12.73
2022-11-23T02:29:52.394Z,12.60
2022-11-23T02:32:23.570Z,11.52
2022-11-23T02:34:50.779Z,11.23
2022-11-23T02:37:18.706Z,11.23
2022-11-23T02:39:51.073Z,10.13
2022-11-23T02:42:18.612Z,10.10
2022-11-23T02:45:08.576Z,10.43
2022-11-23T02:47:35.610Z,11.00
2022-11-23T02:50:02.979Z,10.73
2022-11-23T02:52:30.006Z,10.77
2022-11-23T02:54:57.491Z,10.57
2022-11-23T02:57:24.935Z,11.30
2022-11-23T02:59:51.978Z,11.40
2022-11-23T03:02:19.046Z,10.57
2022-11-23T03:04:46.206Z,10.80
2022-11-23T03:07:13.286Z,11.73
2022-11-23T03:09:40.336Z,10.73
2022-11-23T03:12:07.410Z,11.75
2022-11-23T03:14:34.562Z,12.15
2022-11-23T03:17:01.685Z,10.77
2022-11-23T03:19:28.974Z,11.25
2022-11-23T03:21:56.250Z,10.80
2022-11-23T03:24:23.573Z,10.93
2022-11-23T03:26:50.717Z,9.48
2022-11-23T03:29:17.789Z,10.10
2022-11-23T03:31:44.821Z,9.27
2022-11-23T03:34:12.046Z,9.93
2022-11-23T03:36:39.040Z,8.77
2022-11-23T03:39:06.042Z,10.40
2022-11-23T03:41:33.129Z,9.00
2022-11-23T03:44:00.154Z,8.93
2022-11-23T03:46:27.656Z,9.10
2022-11-23T03:48:54.717Z,8.25
2022-11-23T03:51:22.012Z,8.80
2022-11-23T03:53:49.328Z,9.40
2022-11-23T03:56:16.327Z,7.95
2022-11-23T03:58:43.359Z,8.13
2022-11-23T04:01:10.484Z,7.60
2022-11-23T04:03:37.644Z,8.18
2022-11-23T04:06:04.747Z,7.70
2022-11-23T04:08:31.797Z,7.93
2022-11-23T04:10:59.676Z,7.03
2022-11-23T04:13:27.297Z,6.32
2022-11-23T04:15:54.852Z,6.82
2022-11-23T04:18:21.939Z,5.88
2022-11-23T04:20:49.043Z,5.25
2022-11-23T04:23:16.072Z,6.53
2022-11-23T04:25:43.209Z,5.95
2022-11-23T04:28:10.203Z,5.03
2022-11-23T04:30:37.240Z,5.15
2022-11-23T04:33:04.307Z,5.18
2022-11-23T04:35:31.468Z,5.63
2022-11-23T04:37:58.470Z,5.90
2022-11-23T04:40:26.004Z,5.60
2022-11-23T04:42:53.848Z,6.28
2022-11-23T04:45:22.666Z,6.22
2022-11-23T04:47:49.902Z,6.47
2022-11-23T04:50:17.201Z,5.80
2022-11-23T04:52:44.288Z,6.05
2022-11-23T04:55:11.451Z,5.95
2022-11-23T04:57:38.444Z,6.13
2022-11-23T05:00:05.994Z,5.65
2022-11-23T05:02:33.130Z,5.75
2022-11-23T05:05:00.171Z,6.13
2022-11-23T05:07:27.218Z,6.85
2022-11-23T05:09:54.356Z,6.25
2022-11-23T05:12:21.352Z,5.85
2022-11-23T05:14:48.340Z,6.28
2022-11-23T05:17:15.375Z,5.80
2022-11-23T05:19:42.390Z,5.82
2022-11-23T05:22:09.431Z,5.82
2022-11-23T05:24:36.577Z,6.20
2022-11-23T05:27:03.664Z,4.75
2022-11-23T05:29:31.013Z,5.80
2022-11-23T05:31:58.267Z,5.10
2022-11-23T05:34:25.307Z,5.40
2022-11-23T05:36:52.312Z,5.80
2022-11-23T05:39:19.403Z,5.20
2022-11-23T05:41:46.417Z,5.63
2022-11-23T05:44:13.404Z,5.75
2022-11-23T05:46:40.392Z,4.85
2022-11-23T05:49:07.429Z,5.32
2022-11-23T05:51:34.513Z,5.68
2022-11-23T05:54:02.208Z,5.63
2022-11-23T05:56:29.256Z,4.78
2022-11-23T05:58:56.648Z,5.70
2022-11-23T06:01:24.211Z,5.10
2022-11-23T06:03:51.541Z,5.68
2022-11-23T06:06:18.718Z,4.63
2022-11-23T06:08:49.115Z,5.75
2022-11-23T06:11:17.063Z,5.65
2022-11-23T06:13:47.486Z,5.38
2022-11-23T06:16:14.529Z,4.82
2022-11-23T06:18:41.609Z,5.40
2022-11-23T06:21:08.575Z,5.05
2022-11-23T06:23:35.578Z,4.78
2022-11-23T06:26:02.824Z,5.13
2022-11-23T06:28:29.950Z,4.65
2022-11-23T06:31:02.272Z,4.75
2022-11-23T06:33:29.345Z,4.18
2022-11-23T06:35:58.995Z,4.63
2022-11-23T06:38:26.386Z,3.60
2022-11-23T06:40:53.805Z,4.63
2022-11-23T06:43:20.855Z,3.47
2022-11-23T06:45:47.937Z,3.78
2022-11-23T06:48:14.942Z,4.32
2022-11-23T06:50:42.052Z,4.05
2022-11-23T06:53:12.373Z,3.75
2022-11-23T06:55:39.792Z,4.00
2022-11-23T06:58:07.574Z,3.60
2022-11-23T07:00:34.878Z,4.28
2022-11-23T07:03:01.937Z,3.58
2022-11-23T07:05:29.153Z,3.40
2022-11-23T07:07:56.940Z,3.35
2022-11-23T07:10:25.679Z,3.35
2022-11-23T07:12:52.866Z,2.53
2022-11-23T07:15:19.982Z,3.80
2022-11-23T07:17:47.038Z,2.90
2022-11-23T07:20:14.605Z,3.30
2022-11-23T07:22:41.800Z,3.47
2022-11-23T07:25:09.371Z,4.43
2022-11-23T07:27:36.466Z,2.80
2022-11-23T07:30:03.933Z,2.65
2022-11-23T07:32:30.892Z,3.20
2022-11-23T07:34:58.062Z,5.82
2022-11-23T07:37:25.057Z,5.68
2022-11-23T07:39:57.970Z,4.57
2022-11-23T07:42:36.985Z,4.55
2022-11-23T07:45:09.240Z,4.18
2022-11-23T07:47:36.300Z,4.32
2022-11-23T07:50:07.225Z,3.25
2022-11-23T07:52:36.551Z,3.13
2022-11-23T07:55:05.189Z,2.70
2022-11-23T07:57:32.181Z,2.78
2022-11-23T07:59:59.290Z,4.70
2022-11-23T08:02:26.428Z,2.10
2022-11-23T08:04:55.479Z,2.53
2022-11-23T08:07:24.196Z,3.38
2022-11-23T08:09:51.442Z,4.25
2022-11-23T08:12:18.518Z,2.75
2022-11-23T08:14:45.515Z,2.80
2022-11-23T08:17:12.555Z,2.47
2022-11-23T08:19:39.596Z,2.90
2022-11-23T08:22:06.609Z,2.45
2022-11-23T08:24:34.042Z,2.65
2022-11-23T08:27:01.583Z,3.22
2022-11-23T08:29:30.028Z,2.85
2022-11-23T08:31:57.402Z,2.97
2022-11-23T08:34:24.713Z,2.50
2022-11-23T08:36:51.858Z,2.42
2022-11-23T08:39:19.403Z,2.25
2022-11-23T08:41:46.452Z,3.15
2022-11-23T08:44:13.600Z,2.55
2022-11-23T08:46:40.741Z,2.20
2022-11-23T08:49:07.893Z,2.78
2022-11-23T08:51:34.928Z,2.47
2022-11-23T08:54:01.964Z,3.00
2022-11-23T08:56:29.094Z,3.40
2022-11-23T08:58:56.147Z,2.25
2022-11-23T09:01:23.455Z,3.25
2022-11-23T09:03:50.810Z,3.13
2022-11-23T09:06:17.829Z,3.60
2022-11-23T09:08:44.979Z,3.45
2022-11-23T09:11:14.078Z,2.45
2022-11-23T09:13:41.289Z,2.63
2022-11-23T09:16:08.875Z,3.00
2022-11-23T09:18:36.672Z,4.07
2022-11-23T09:21:09.157Z,3.55
2022-11-23T09:23:36.621Z,3.33
2022-11-23T09:26:05.183Z,3.70
2022-11-23T09:28:33.150Z,2.90
2022-11-23T09:31:06.593Z,4.18
2022-11-23T09:33:33.665Z,3.10
2022-11-23T09:36:03.715Z,2.67
2022-11-23T09:38:54.972Z,3.25
2022-11-23T09:41:42.355Z,3.65
2022-11-23T09:44:33.977Z,3.63
2022-11-23T09:47:39.544Z,2.70
2022-11-23T09:50:06.657Z,3.15
2022-11-23T09:52:36.069Z,3.40
2022-11-23T09:55:21.828Z,3.50
2022-11-23T09:57:51.075Z,2.50
2022-11-23T10:00:18.242Z,2.70
2022-11-23T10:02:45.382Z,3.65
2022-11-23T10:05:22.876Z,2.67
2022-11-23T10:07:59.123Z,3.67
2022-11-23T10:10:41.414Z,2.65
2022-11-23T10:13:30.194Z,2.22
2022-11-23T10:16:22.537Z,2.42
2022-11-23T10:19:25.410Z,2.05
2022-11-23T10:22:19.677Z,2.08
2022-11-23T10:24:50.934Z,2.25
2022-11-23T10:27:24.278Z,2.63
2022-11-23T10:29:54.567Z,2.97
2022-11-23T10:32:37.548Z,4.80
2022-11-23T10:35:29.489Z,2.38
2022-11-23T10:38:18.769Z,2.72
2022-11-23T10:40:58.750Z,2.05
2022-11-23T10:43:32.249Z,2.10
2022-11-23T10:46:28.087Z,2.15
2022-11-23T10:48:55.927Z,2.47
2022-11-23T10:51:29.125Z,2.42
2022-11-23T10:54:04.950Z,2.08
2022-11-23T10:56:34.519Z,1.90
2022-11-23T10:59:01.802Z,2.45
2022-11-23T11:01:30.284Z,2.50
2022-11-23T11:04:06.549Z,2.47
2022-11-23T11:06:36.064Z,3.33
2022-11-23T11:09:10.799Z,2.25
2022-11-23T11:11:46.553Z,2.60
2022-11-23T11:14:19.814Z,2.58
2022-11-23T11:16:51.542Z,2.50
2022-11-23T11:19:28.945Z,2.20
2022-11-23T11:21:57.969Z,2.60
2022-11-23T11:24:39.148Z,2.42
2022-11-23T11:27:32.832Z,2.33
2022-11-23T11:30:07.339Z,1.98
2022-11-23T11:33:14.526Z,2.47
2022-11-23T11:35:46.948Z,2.67
2022-11-23T11:38:25.108Z,1.75
2022-11-23T11:40:53.031Z,2.30
2022-11-23T11:43:40.572Z,2.45
2022-11-23T11:46:31.829Z,1.75
2022-11-23T11:49:15.534Z,1.98
2022-11-23T11:51:47.965Z,2.05
2022-11-23T11:54:37.074Z,1.70
2022-11-23T11:57:15.965Z,1.75
2022-11-23T11:59:47.324Z,2.15
2022-11-23T12:02:17.045Z,2.03
2022-11-23T12:04:49.850Z,2.20
2022-11-23T12:07:33.290Z,2.33
2022-11-23T12:10:26.596Z,1.90
2022-11-23T12:12:56.602Z,1.23
2022-11-23T12:15:48.805Z,1.77
2022-11-23T12:18:34.875Z,2.08
2022-11-23T12:21:21.285Z,1.35
2022-11-23T12:24:06.289Z,1.52
2022-11-23T12:26:52.093Z,1.50
2022-11-23T12:29:40.388Z,1.60
2022-11-23T12:32:34.840Z,1.33
2022-11-23T12:38:18.038Z,1.60
2022-11-23T12:41:07.433Z,1.15
2022-11-23T12:44:01.193Z,1.55
2022-11-23T12:46:46.951Z,1.27
2022-11-23T12:49:16.702Z,1.38
2022-11-23T12:52:21.128Z,1.33
2022-11-23T12:54:54.505Z,1.30
2022-11-23T12:57:33.421Z,1.42
2022-11-23T13:00:06.193Z,1.33
2022-11-23T13:02:56.693Z,1.77
2022-11-23T13:05:40.615Z,1.27
2022-11-23T13:08:45.175Z,1.98
2022-11-23T13:11:26.195Z,1.17
2022-11-23T13:14:16.200Z,1.42
2022-11-23T13:16:46.375Z,1.52
2022-11-23T13:19:13.418Z,1.25
2022-11-23T13:21:43.411Z,1.33
2022-11-23T13:24:33.462Z,1.10
2022-11-23T13:27:31.452Z,1.10
2022-11-23T13:30:01.108Z,1.45
2022-11-23T13:32:38.135Z,1.05
2022-11-23T13:35:13.967Z,1.15
2022-11-23T13:37:55.933Z,0.82
2022-11-23T13:40:36.752Z,1.02
2022-11-23T13:43:25.393Z,1.60
2022-11-23T13:46:37.380Z,0.98
2022-11-23T13:49:43.179Z,1.35
2022-11-23T13:52:25.102Z,1.45
2022-11-23T13:55:04.033Z,1.10
2022-11-23T13:57:34.835Z,1.08
2022-11-23T14:00:39.266Z,0.98
2022-11-23T14:03:45.209Z,1.38
2022-11-23T14:06:36.726Z,1.33
2022-11-23T14:09:06.663Z,1.50
2022-11-23T14:11:43.035Z,1.17
2022-11-23T14:14:20.111Z,1.15
2022-11-23T14:17:09.037Z,1.55
2022-11-23T14:20:21.714Z,1.00
2022-11-23T14:23:26.439Z,1.52
2022-11-23T14:28:44.146Z,1.40
2022-11-23T14:31:45.186Z,4.43
2022-11-23T14:34:31.928Z,2.05
2022-11-23T14:37:18.927Z,0.90
2022-11-23T14:39:54.424Z,1.17
2022-11-23T14:42:24.989Z,1.15
2022-11-23T14:44:53.368Z,1.40
2022-11-23T14:47:29.135Z,1.00
2022-11-23T14:49:57.237Z,1.50
2022-11-23T14:52:31.051Z,2.83
2022-11-23T14:57:39.620Z,1.70
2022-11-23T15:00:11.804Z,1.83
2022-11-23T15:02:41.099Z,1.50
2022-11-23T15:05:26.949Z,1.13
2022-11-23T15:08:00.270Z,1.17
2022-11-23T15:10:52.251Z,1.67
2022-11-23T15:13:24.915Z,1.63
2022-11-23T15:15:57.239Z,1.33
2022-11-23T15:18:29.627Z,1.97
2022-11-23T15:21:01.089Z,1.60
2022-11-23T15:23:35.555Z,1.25
2022-11-23T15:26:34.653Z,1.73
2022-11-23T15:29:02.708Z,2.90
2022-11-23T15:31:32.342Z,1.67
2022-11-23T15:34:03.766Z,1.40
2022-11-23T15:36:36.780Z,2.20
2022-11-23T15:39:08.838Z,1.27
2022-11-23T15:41:39.952Z,1.92
2022-11-23T15:44:23.945Z,1.60
2022-11-23T15:46:54.966Z,2.28
2022-11-23T15:49:22.312Z,1.70
2022-11-23T15:51:49.949Z,1.80
2022-11-23T15:54:32.137Z,1.50
2022-11-23T15:56:59.616Z,2.13
2022-11-23T15:59:46.859Z,2.75
2022-11-23T16:02:21.467Z,1.25
2022-11-23T16:04:48.759Z,2.03
2022-11-23T16:07:21.678Z,2.25
2022-11-23T16:09:52.756Z,2.70
2022-11-23T16:12:26.354Z,3.08
2022-11-23T16:14:59.004Z,3.20
2022-11-23T16:17:28.146Z,1.63
2022-11-23T16:20:00.011Z,1.88
2022-11-23T16:22:33.720Z,1.83
2022-11-23T16:27:57.943Z,1.83
2022-11-23T16:30:27.129Z,1.55
2022-11-23T16:32:54.365Z,1.52
2022-11-23T16:35:21.538Z,2.53
2022-11-23T16:37:48.609Z,3.05
2022-11-23T16:40:15.757Z,13.25
2022-11-23T16:42:43.443Z,10.40
2022-11-23T16:45:11.158Z,4.03
2022-11-23T16:47:55.715Z,3.13
2022-11-23T16:50:24.285Z,3.67
2022-11-23T16:52:51.466Z,11.43
2022-11-23T16:55:18.573Z,8.75
2022-11-23T16:57:46.819Z,7.70
2022-11-23T17:00:19.182Z,3.53
2022-11-23T17:02:46.381Z,5.07
2022-11-23T17:05:18.386Z,7.00
2022-11-23T17:07:46.239Z,3.88
2022-11-23T17:10:14.864Z,5.40
2022-11-23T17:12:49.546Z,4.20
2022-11-23T17:15:19.526Z,18.65
2022-11-23T17:17:46.506Z,8.25
2022-11-23T17:20:14.680Z,7.43
2022-11-23T17:22:41.731Z,6.38
2022-11-23T17:25:14.916Z,6.32
2022-11-23T17:27:43.727Z,4.90
2022-11-23T17:30:17.544Z,7.35
2022-11-23T17:35:11.316Z,5.57
2022-11-23T17:37:38.758Z,5.45
2022-11-23T17:40:16.948Z,5.20
2022-11-23T17:42:44.579Z,4.75
2022-11-23T17:45:12.486Z,5.18
2022-11-23T17:47:40.769Z,5.57
2022-11-23T17:50:12.681Z,4.95
2022-11-23T17:52:42.170Z,6.30
2022-11-23T17:55:11.496Z,5.50
2022-11-23T17:57:39.123Z,5.57
2022-11-23T18:00:14.340Z,5.40
2022-11-23T18:02:42.829Z,6.30
2022-11-23T18:05:11.691Z,6.45
2022-11-23T18:07:41.503Z,5.38
2022-11-23T18:10:11.379Z,6.47
2022-11-23T18:12:39.472Z,6.10
2022-11-23T18:15:08.871Z,5.93
2022-11-23T18:17:38.852Z,6.18
2022-11-23T18:20:10.184Z,7.45
2022-11-23T18:22:37.664Z,6.22
2022-11-23T18:25:05.750Z,7.13
2022-11-23T18:27:33.004Z,7.70
2022-11-23T18:30:00.067Z,7.85
2022-11-23T18:32:27.066Z,8.05
2022-11-23T18:34:55.242Z,8.70
2022-11-23T18:37:22.250Z,7.72
2022-11-23T18:39:49.352Z,8.20
2022-11-23T18:42:16.401Z,8.18
2022-11-23T18:44:43.436Z,9.15
2022-11-23T18:47:12.895Z,8.02
2022-11-23T18:49:39.947Z,7.97
2022-11-23T18:52:08.152Z,7.80
2022-11-23T18:54:35.163Z,7.60
2022-11-23T18:57:02.403Z,8.02
2022-11-23T18:59:56.273Z,8.13
2022-11-23T19:02:16.477Z,8.10
2022-11-23T19:04:43.613Z,8.38
2022-11-23T19:07:10.735Z,9.30
2022-11-23T19:09:37.944Z,8.98
2022-11-23T19:12:08.646Z,9.98
2022-11-23T19:14:38.416Z,8.45
2022-11-23T19:17:08.615Z,7.90
2022-11-23T19:19:38.384Z,8.20
2022-11-23T19:22:08.929Z,7.60
2022-11-23T19:24:36.171Z,8.98
2022-11-23T19:27:03.225Z,9.13
2022-11-23T19:29:30.278Z,10.55
2022-11-23T19:31:57.354Z,8.80
2022-11-23T19:34:24.584Z,9.63
2022-11-23T19:36:51.617Z,13.55
2022-11-23T19:39:18.670Z,10.55
2022-11-23T19:41:46.953Z,7.93
2022-11-23T19:44:14.010Z,7.30
2022-11-23T19:46:41.066Z,8.18
2022-11-23T19:49:08.442Z,8.48
2022-11-23T19:51:38.106Z,7.07
2022-11-23T19:54:07.017Z,6.38
2022-11-23T19:56:34.178Z,7.03
2022-11-23T19:59:01.398Z,6.75
2022-11-23T20:01:34.129Z,7.03
2022-11-23T20:04:08.799Z,7.32
2022-11-23T20:06:38.920Z,6.95
2022-11-23T20:09:08.739Z,6.63
2022-11-23T20:11:38.095Z,7.80
2022-11-23T20:14:06.629Z,6.20
2022-11-23T20:16:34.023Z,7.53
2022-11-23T20:19:03.666Z,7.00
2022-11-23T20:21:31.863Z,7.53
2022-11-23T20:24:04.731Z,7.05
2022-11-23T20:29:00.463Z,7.18
2022-11-23T20:31:29.455Z,7.18
2022-11-23T20:33:57.593Z,7.70
2022-11-23T20:36:29.314Z,7.70
2022-11-23T20:38:57.047Z,7.25
2022-11-23T20:41:30.156Z,6.95
2022-11-23T20:44:03.058Z,7.32
2022-11-23T20:47:00.702Z,7.07
2022-11-23T20:49:18.740Z,8.35
2022-11-23T20:51:45.917Z,6.43
2022-11-23T20:54:12.973Z,6.90
2022-11-23T20:56:40.002Z,7.32
2022-11-23T20:59:07.085Z,8.43
2022-11-23T21:01:34.596Z,6.45
2022-11-23T21:04:02.269Z,6.32
2022-11-23T21:06:32.332Z,6.93
2022-11-23T21:09:02.350Z,6.35
2022-11-23T21:11:48.336Z,9.85
2022-11-23T21:14:18.550Z,15.00
2022-11-23T21:16:53.216Z,15.60
2022-11-23T21:19:25.362Z,17.58
2022-11-23T21:21:53.463Z,15.48
2022-11-23T21:24:20.817Z,11.63
2022-11-23T21:26:48.401Z,13.23
2022-11-23T21:29:17.020Z,7.95
2022-11-23T21:31:46.250Z,6.93
2022-11-23T21:34:24.516Z,9.38
2022-11-23T21:36:52.555Z,10.02
2022-11-23T21:39:20.451Z,8.68
2022-11-23T21:41:50.107Z,12.75
2022-11-23T21:44:17.989Z,10.43
2022-11-23T21:46:45.520Z,10.25
2022-11-23T21:49:12.957Z,11.98
2022-11-23T21:51:42.328Z,7.82
2022-11-23T21:54:13.719Z,8.98
2022-11-23T21:56:47.177Z,8.90
2022-11-23T21:59:14.413Z,8.82
2022-11-23T22:01:41.748Z,8.05
2022-11-23T22:04:15.226Z,6.93
2022-11-23T22:06:44.385Z,12.07
2022-11-23T22:09:12.154Z,13.70
2022-11-23T22:11:41.612Z,7.40
2022-11-23T22:14:11.741Z,7.43
2022-11-23T22:16:41.630Z,7.75
2022-11-23T22:19:11.831Z,6.22
2022-11-23T22:21:40.440Z,7.00
2022-11-23T22:24:19.011Z,7.20
2022-11-23T22:26:47.814Z,6.30
2022-11-23T22:29:15.243Z,6.03
2022-11-23T22:31:43.551Z,8.48
2022-11-23T22:34:13.103Z,6.40
2022-11-23T22:36:40.436Z,6.80
2022-11-23T22:39:08.172Z,5.40
2022-11-23T22:41:37.343Z,5.32
2022-11-23T22:44:06.559Z,4.88
2022-11-23T22:46:33.703Z,6.40
2022-11-23T22:49:01.817Z,5.00
2022-11-23T22:51:29.824Z,5.75
2022-11-23T22:53:59.096Z,4.68
2022-11-23T22:56:27.190Z,5.28
2022-11-23T22:58:59.882Z,5.18
2022-11-23T23:01:29.970Z,4.68
2022-11-23T23:03:59.506Z,5.00
2022-11-23T23:06:29.180Z,4.85
2022-11-23T23:08:58.999Z,5.78
2022-11-23T23:11:29.088Z,4.80
2022-11-23T23:13:56.955Z,5.95
2022-11-23T23:16:24.909Z,4.90
2022-11-23T23:18:55.302Z,4.00
2022-11-23T23:21:23.581Z,5.07
2022-11-23T23:23:52.739Z,5.53
2022-11-23T23:26:23.496Z,5.28
2022-11-23T23:28:55.566Z,4.45
2022-11-23T23:31:23.637Z,4.75
2022-11-23T23:33:51.114Z,3.90
2022-11-23T23:36:20.822Z,5.13
2022-11-23T23:38:48.355Z,3.88
2022-11-23T23:41:15.774Z,4.97
2022-11-23T23:43:43.105Z,4.35
2022-11-23T23:46:12.993Z,4.40
2022-11-23T23:48:41.006Z,4.43
2022-11-23T23:51:13.787Z,4.03
2022-11-23T23:53:41.666Z,3.65
2022-11-23T23:56:13.663Z,4.10
2022-11-23T23:58:41.399Z,4.47
